createdAt,value
2019-01-10T00:01:35.635Z,9.80
2019-01-10T00:04:07.578Z,9.80
2019-01-10T00:06:38.575Z,9.80
2019-01-10T00:09:09.869Z,9.80
2019-01-10T00:11:41.417Z,9.80
2019-01-10T00:14:15.632Z,9.90
2019-01-10T00:16:49.658Z,9.80
2019-01-10T00:19:20.893Z,9.80
2019-01-10T00:21:52.033Z,9.70
2019-01-10T00:24:22.788Z,9.80
2019-01-10T00:27:02.658Z,9.80
2019-01-10T00:29:33.972Z,9.90
2019-01-10T00:32:06.227Z,9.90
2019-01-10T00:34:37.800Z,9.80
2019-01-10T00:37:09.211Z,9.90
2019-01-10T00:39:40.315Z,9.90
2019-01-10T00:42:11.809Z,9.90
2019-01-10T00:44:42.868Z,9.90
2019-01-10T00:47:14.106Z,9.80
2019-01-10T00:49:45.242Z,9.80
2019-01-10T00:52:17.191Z,9.80
2019-01-10T00:54:48.135Z,9.80
2019-01-10T00:57:19.194Z,9.80
2019-01-10T00:59:50.288Z,9.80
2019-01-10T01:02:35.717Z,9.70
2019-01-10T01:05:11.060Z,9.80
2019-01-10T01:07:45.977Z,9.80
2019-01-10T01:10:19.373Z,9.90
2019-01-10T01:12:58.380Z,9.80
2019-01-10T01:15:23.391Z,9.60
2019-01-10T01:17:55.677Z,9.50
2019-01-10T01:20:27.005Z,9.60
2019-01-10T01:22:58.232Z,9.70
2019-01-10T01:25:29.208Z,9.60
2019-01-10T01:28:00.438Z,9.70
2019-01-10T01:30:41.237Z,9.70
2019-01-10T01:33:12.389Z,9.50
2019-01-10T01:35:43.544Z,9.50
2019-01-10T01:38:14.656Z,9.40
2019-01-10T01:40:54.238Z,9.20
2019-01-10T01:43:48.293Z,9.20
2019-01-10T01:46:19.046Z,9.10
2019-01-10T01:48:50.213Z,9.10
2019-01-10T01:51:20.988Z,9.00
2019-01-10T01:53:53.644Z,9.00
2019-01-10T01:56:24.894Z,9.00
2019-01-10T01:58:56.757Z,9.10
2019-01-10T02:01:28.324Z,9.10
2019-01-10T02:04:01.627Z,9.00
2019-01-10T02:06:33.680Z,9.10
2019-01-10T02:09:06.449Z,9.00
2019-01-10T02:11:37.644Z,9.00
2019-01-10T02:14:09.134Z,9.00
2019-01-10T02:16:40.414Z,9.00
2019-01-10T02:19:11.820Z,9.00
2019-01-10T02:21:43.119Z,9.00
2019-01-10T02:24:16.946Z,9.00
2019-01-10T02:26:52.219Z,9.00
2019-01-10T02:29:23.394Z,8.90
2019-01-10T02:31:54.842Z,8.90
2019-01-10T02:34:25.773Z,8.80
2019-01-10T02:36:57.122Z,8.80
2019-01-10T02:39:28.550Z,8.80
2019-01-10T02:42:11.673Z,8.80
2019-01-10T02:44:46.911Z,8.80
2019-01-10T02:47:37.739Z,8.80
2019-01-10T02:50:11.828Z,8.70
2019-01-10T02:52:43.166Z,8.70
2019-01-10T02:55:14.895Z,8.60
2019-01-10T02:57:45.945Z,8.60
2019-01-10T03:00:19.984Z,8.70
2019-01-10T03:02:51.350Z,8.70
2019-01-10T03:05:22.359Z,8.70
2019-01-10T03:07:53.607Z,8.70
2019-01-10T03:10:26.932Z,8.70
2019-01-10T03:12:58.100Z,8.70
2019-01-10T03:15:29.625Z,8.70
2019-01-10T03:18:00.829Z,8.80
2019-01-10T03:20:32.301Z,8.90
2019-01-10T03:23:03.332Z,9.00
2019-01-10T03:25:40.654Z,9.10
2019-01-10T03:28:11.694Z,9.20
2019-01-10T03:30:43.043Z,9.30
2019-01-10T03:33:29.613Z,9.20
2019-01-10T03:36:00.885Z,9.10
2019-01-10T03:38:32.280Z,9.10
2019-01-10T03:41:03.479Z,9.10
2019-01-10T03:43:46.780Z,9.10
2019-01-10T03:46:11.959Z,9.00
2019-01-10T03:48:49.702Z,9.10
2019-01-10T03:51:20.478Z,9.10
2019-01-10T03:53:52.596Z,9.00
2019-01-10T03:56:36.623Z,9.00
2019-01-10T03:59:08.451Z,9.00
2019-01-10T04:01:39.940Z,8.90
2019-01-10T04:04:23.277Z,8.90
2019-01-10T04:06:55.438Z,8.90
2019-01-10T04:09:26.502Z,8.90
2019-01-10T04:12:03.331Z,8.80
2019-01-10T04:14:34.447Z,8.80
2019-01-10T04:17:07.200Z,8.80
2019-01-10T04:19:42.125Z,8.80
2019-01-10T04:22:14.403Z,8.80
2019-01-10T04:24:45.874Z,8.70
2019-01-10T04:27:18.726Z,8.70
2019-01-10T04:29:51.220Z,8.70
2019-01-10T04:32:22.753Z,8.70
2019-01-10T04:34:54.000Z,8.70
2019-01-10T04:37:25.458Z,8.70
2019-01-10T04:39:56.452Z,8.70
2019-01-10T04:42:27.607Z,8.80
2019-01-10T04:45:00.961Z,8.90
2019-01-10T04:47:32.550Z,8.90
2019-01-10T04:50:03.875Z,9.00
2019-01-10T04:52:35.042Z,9.00
2019-01-10T04:55:06.433Z,9.00
2019-01-10T04:57:37.563Z,9.00
2019-01-10T05:00:15.813Z,8.90
2019-01-10T05:02:46.921Z,8.90
2019-01-10T05:05:17.851Z,8.90
2019-01-10T05:07:49.413Z,8.90
2019-01-10T05:10:20.240Z,8.90
2019-01-10T05:12:51.488Z,8.80
2019-01-10T05:15:22.253Z,8.70
2019-01-10T05:17:54.477Z,8.70
2019-01-10T05:20:27.211Z,8.70
2019-01-10T05:22:58.624Z,8.60
2019-01-10T05:25:30.802Z,8.60
2019-01-10T05:28:02.065Z,8.60
2019-01-10T05:30:33.369Z,8.60
2019-01-10T05:33:04.786Z,8.70
2019-01-10T05:35:35.990Z,8.70
2019-01-10T05:38:14.734Z,8.70
2019-01-10T05:40:46.819Z,8.70
2019-01-10T05:43:23.469Z,8.60
2019-01-10T05:45:55.482Z,8.60
2019-01-10T05:48:27.418Z,8.60
2019-01-10T05:50:59.469Z,8.60
2019-01-10T05:53:31.335Z,8.60
2019-01-10T05:56:03.441Z,8.60
2019-01-10T05:58:44.592Z,8.60
2019-01-10T06:01:18.388Z,8.60
2019-01-10T06:04:08.096Z,8.50
2019-01-10T06:06:40.570Z,8.60
2019-01-10T06:09:13.224Z,8.50
2019-01-10T06:11:48.054Z,8.60
2019-01-10T06:14:35.720Z,8.60
2019-01-10T06:17:06.593Z,8.60
2019-01-10T06:19:39.466Z,8.50
2019-01-10T06:22:10.548Z,8.50
2019-01-10T06:24:41.698Z,8.50
2019-01-10T06:27:13.004Z,8.50
2019-01-10T06:29:44.183Z,8.50
2019-01-10T06:32:15.718Z,8.50
2019-01-10T06:35:05.588Z,8.60
2019-01-10T06:37:36.742Z,8.60
2019-01-10T06:40:08.808Z,8.60
2019-01-10T06:42:39.817Z,8.60
2019-01-10T06:45:12.180Z,8.60
2019-01-10T06:47:43.345Z,8.70
2019-01-10T06:50:16.596Z,8.70
2019-01-10T06:52:49.184Z,8.70
2019-01-10T06:55:21.555Z,8.70
2019-01-10T06:57:54.033Z,8.70
2019-01-10T07:00:26.614Z,8.60
2019-01-10T07:02:58.025Z,8.70
2019-01-10T07:05:52.772Z,8.60
2019-01-10T07:08:25.577Z,8.60
2019-01-10T07:10:56.806Z,8.60
2019-01-10T07:13:28.830Z,8.70
2019-01-10T07:16:00.262Z,8.70
2019-01-10T07:18:31.404Z,8.70
2019-01-10T07:21:02.602Z,8.70
2019-01-10T07:23:33.839Z,8.80
2019-01-10T07:26:05.458Z,8.70
2019-01-10T07:28:36.375Z,8.70
2019-01-10T07:31:30.001Z,8.80
2019-01-10T07:34:14.667Z,8.70
2019-01-10T07:36:50.626Z,8.80
2019-01-10T07:39:22.351Z,8.70
2019-01-10T07:41:54.176Z,8.70
2019-01-10T07:44:26.667Z,8.80
2019-01-10T07:46:58.454Z,8.90
2019-01-10T07:49:30.476Z,9.00
2019-01-10T07:52:02.252Z,8.90
2019-01-10T07:54:34.900Z,8.90
2019-01-10T07:57:08.484Z,9.00
2019-01-10T07:59:41.271Z,9.00
2019-01-10T08:02:13.214Z,9.00
2019-01-10T08:04:44.692Z,9.10
2019-01-10T08:07:16.649Z,9.20
2019-01-10T08:09:53.836Z,9.30
2019-01-10T08:12:27.143Z,9.30
2019-01-10T08:15:02.171Z,9.30
2019-01-10T08:17:34.245Z,9.40
2019-01-10T08:20:07.460Z,9.40
2019-01-10T08:22:39.812Z,10.80
2019-01-10T08:25:11.871Z,9.50
2019-01-10T08:27:43.924Z,9.50
2019-01-10T08:30:20.905Z,9.50
2019-01-10T08:32:52.995Z,9.50
2019-01-10T08:35:26.370Z,9.60
2019-01-10T08:37:58.449Z,9.50
2019-01-10T08:40:30.511Z,9.60
2019-01-10T08:43:02.080Z,9.70
2019-01-10T08:45:33.824Z,9.70
2019-01-10T08:48:05.644Z,9.80
2019-01-10T08:50:38.753Z,9.80
2019-01-10T08:53:09.985Z,9.80
2019-01-10T08:55:57.552Z,9.90
2019-01-10T08:58:28.593Z,9.90
2019-01-10T09:01:00.241Z,10.00
2019-01-10T09:03:31.637Z,9.90
2019-01-10T09:06:08.039Z,10.00
2019-01-10T09:08:36.328Z,10.10
2019-01-10T09:11:07.913Z,10.10
2019-01-10T09:13:39.400Z,10.10
2019-01-10T09:16:11.464Z,10.10
2019-01-10T09:18:43.006Z,10.10
2019-01-10T09:21:14.746Z,10.20
2019-01-10T09:23:46.587Z,10.20
2019-01-10T09:26:18.082Z,10.20
2019-01-10T09:28:51.093Z,10.20
2019-01-10T09:31:22.529Z,10.20
2019-01-10T09:33:58.350Z,10.30
2019-01-10T09:36:29.653Z,10.40
2019-01-10T09:39:01.475Z,10.40
2019-01-10T09:41:34.044Z,10.30
2019-01-10T09:44:07.529Z,10.30
2019-01-10T09:46:39.189Z,10.40
2019-01-10T09:49:15.977Z,10.40
2019-01-10T09:51:55.369Z,10.40
2019-01-10T09:54:26.550Z,10.50
2019-01-10T09:56:58.001Z,10.60
2019-01-10T09:59:34.881Z,10.60
2019-01-10T10:02:09.201Z,10.70
2019-01-10T10:04:41.766Z,10.70
2019-01-10T10:07:13.037Z,10.80
2019-01-10T10:09:44.674Z,10.80
2019-01-10T10:12:15.932Z,10.90
2019-01-10T10:14:47.402Z,11.00
2019-01-10T10:17:32.970Z,11.00
2019-01-10T10:20:09.470Z,11.00
2019-01-10T10:22:44.393Z,11.10
2019-01-10T10:25:16.706Z,11.10
2019-01-10T10:27:48.205Z,11.10
2019-01-10T10:30:20.789Z,11.10
2019-01-10T10:32:52.158Z,11.20
2019-01-10T10:35:23.116Z,11.30
2019-01-10T10:37:54.481Z,11.30
2019-01-10T10:40:29.268Z,11.30
2019-01-10T10:43:00.609Z,11.30
2019-01-10T10:45:31.969Z,11.30
2019-01-10T10:48:03.062Z,11.30
2019-01-10T10:50:42.480Z,11.40
2019-01-10T10:53:13.372Z,11.50
2019-01-10T10:55:44.825Z,11.50
2019-01-10T10:58:16.048Z,11.50
2019-01-10T11:00:47.465Z,11.50
2019-01-10T11:03:24.613Z,11.50
2019-01-10T11:05:56.042Z,11.60
2019-01-10T11:08:26.840Z,11.70
2019-01-10T11:10:58.403Z,11.80
2019-01-10T11:13:29.489Z,11.80
2019-01-10T11:16:00.907Z,11.90
2019-01-10T11:18:31.940Z,11.90
2019-01-10T11:21:03.576Z,11.90
2019-01-10T11:23:34.774Z,12.00
2019-01-10T11:26:06.923Z,12.60
2019-01-10T11:28:42.158Z,12.00
2019-01-10T11:31:13.946Z,12.10
2019-01-10T11:33:45.532Z,12.20
2019-01-10T11:36:32.254Z,12.10
2019-01-10T11:39:04.173Z,12.20
2019-01-10T11:41:35.920Z,12.20
2019-01-10T11:44:25.738Z,12.20
2019-01-10T11:46:58.757Z,12.20
2019-01-10T11:49:30.083Z,12.10
2019-01-10T11:52:01.417Z,12.20
2019-01-10T11:54:33.179Z,12.10
2019-01-10T11:57:04.631Z,12.00
2019-01-10T11:59:35.871Z,12.10
2019-01-10T12:02:07.083Z,12.10
2019-01-10T12:04:38.324Z,12.30
2019-01-10T12:07:10.473Z,12.30
2019-01-10T12:09:42.586Z,11.80
2019-01-10T12:12:14.814Z,11.60
2019-01-10T12:14:47.931Z,11.50
2019-01-10T12:17:20.600Z,11.50
2019-01-10T12:19:52.548Z,11.50
2019-01-10T12:22:24.951Z,11.60
2019-01-10T12:24:59.234Z,11.50
2019-01-10T12:27:33.473Z,11.50
2019-01-10T12:30:06.201Z,11.30
2019-01-10T12:32:37.722Z,11.30
2019-01-10T12:35:09.415Z,11.40
2019-01-10T12:37:43.376Z,11.40
2019-01-10T12:40:15.316Z,11.40
2019-01-10T12:42:46.976Z,11.20
2019-01-10T12:45:19.247Z,11.20
2019-01-10T12:47:55.444Z,11.00
2019-01-10T12:50:33.853Z,11.00
2019-01-10T12:53:08.040Z,10.90
2019-01-10T12:55:40.112Z,11.00
2019-01-10T12:58:12.045Z,10.90
2019-01-10T13:00:43.743Z,11.00
2019-01-10T13:03:15.301Z,11.00
2019-01-10T13:05:46.475Z,11.10
2019-01-10T13:08:18.202Z,11.10
2019-01-10T13:10:52.859Z,11.10
2019-01-10T13:13:23.767Z,11.20
2019-01-10T13:15:55.046Z,11.20
2019-01-10T13:18:27.134Z,11.20
2019-01-10T13:20:58.598Z,11.10
2019-01-10T13:23:35.193Z,11.10
2019-01-10T13:26:07.713Z,11.00
2019-01-10T13:28:40.974Z,11.20
2019-01-10T13:31:12.424Z,11.30
2019-01-10T13:33:45.551Z,11.30
2019-01-10T13:36:20.066Z,11.20
2019-01-10T13:38:52.620Z,11.20
2019-01-10T13:41:24.903Z,11.20
2019-01-10T13:43:57.388Z,11.30
2019-01-10T13:46:28.824Z,11.30
2019-01-10T13:49:03.961Z,11.10
2019-01-10T13:51:35.386Z,11.20
2019-01-10T13:54:07.087Z,11.10
2019-01-10T13:56:38.455Z,11.20
2019-01-10T13:59:09.736Z,11.10
2019-01-10T14:01:40.800Z,11.10
2019-01-10T14:06:43.957Z,11.20
2019-01-10T14:09:15.562Z,11.30
2019-01-10T14:11:47.069Z,11.20
2019-01-10T14:14:18.348Z,11.20
2019-01-10T14:17:01.797Z,11.20
2019-01-10T14:19:33.423Z,11.30
2019-01-10T14:22:05.850Z,11.20
2019-01-10T14:24:37.963Z,11.30
2019-01-10T14:27:09.575Z,11.30
2019-01-10T14:29:41.569Z,11.20
2019-01-10T14:32:13.227Z,11.30
2019-01-10T14:34:46.007Z,11.50
2019-01-10T14:37:18.499Z,11.50
2019-01-10T14:39:50.761Z,11.50
2019-01-10T14:42:21.729Z,11.40
2019-01-10T14:44:53.823Z,11.50
2019-01-10T14:47:24.861Z,11.60
2019-01-10T14:49:56.270Z,11.60
2019-01-10T14:52:27.279Z,11.60
2019-01-10T14:54:59.088Z,11.60
2019-01-10T14:57:30.853Z,11.70
2019-01-10T15:00:05.572Z,11.80
2019-01-10T15:02:37.116Z,12.00
2019-01-10T15:05:08.851Z,12.30
2019-01-10T15:07:40.688Z,12.60
2019-01-10T15:10:12.843Z,12.60
2019-01-10T15:12:46.107Z,12.60
2019-01-10T15:15:22.416Z,12.60
2019-01-10T15:17:54.285Z,12.00
2019-01-10T15:20:27.783Z,12.10
2019-01-10T15:22:59.504Z,12.00
2019-01-10T15:25:30.442Z,11.90
2019-01-10T15:28:01.662Z,11.80
2019-01-10T15:30:33.291Z,11.80
2019-01-10T15:33:05.233Z,11.80
2019-01-10T15:35:36.581Z,11.80
2019-01-10T15:38:15.323Z,11.70
2019-01-10T15:40:46.862Z,11.60
2019-01-10T15:43:18.176Z,11.50
2019-01-10T15:45:50.221Z,11.40
2019-01-10T15:48:21.199Z,11.40
2019-01-10T15:50:52.791Z,11.30
2019-01-10T15:53:23.938Z,11.10
2019-01-10T15:55:55.183Z,11.20
2019-01-10T15:58:26.136Z,11.20
2019-01-10T16:00:57.467Z,12.40
2019-01-10T16:03:28.375Z,11.10
2019-01-10T16:05:59.555Z,11.00
2019-01-10T16:08:31.091Z,11.00
2019-01-10T16:11:04.947Z,10.90
2019-01-10T16:13:36.076Z,11.00
2019-01-10T16:16:07.372Z,10.90
2019-01-10T16:18:38.626Z,10.90
2019-01-10T16:21:10.112Z,11.00
2019-01-10T16:23:45.174Z,11.00
2019-01-10T16:26:23.828Z,10.90
2019-01-10T16:28:55.151Z,10.90
2019-01-10T16:31:26.395Z,10.80
2019-01-10T16:34:01.571Z,10.80
2019-01-10T16:36:37.783Z,10.80
2019-01-10T16:39:15.345Z,10.90
2019-01-10T16:41:46.711Z,10.90
2019-01-10T16:44:21.400Z,10.90
2019-01-10T16:46:53.482Z,10.80
2019-01-10T16:49:24.484Z,10.70
2019-01-10T16:51:55.933Z,10.60
2019-01-10T16:54:27.123Z,10.60
2019-01-10T16:56:58.475Z,10.60
2019-01-10T16:59:29.596Z,10.60
2019-01-10T17:02:01.166Z,10.70
2019-01-10T17:04:32.672Z,10.70
2019-01-10T17:07:04.171Z,10.60
2019-01-10T17:09:35.638Z,10.60
2019-01-10T17:12:07.563Z,10.60
2019-01-10T17:14:38.932Z,10.60
2019-01-10T17:17:10.387Z,10.50
2019-01-10T17:19:46.641Z,10.50
2019-01-10T17:22:18.104Z,10.50
2019-01-10T17:24:50.705Z,10.50
2019-01-10T17:27:41.636Z,10.60
2019-01-10T17:30:17.345Z,10.60
2019-01-10T17:32:48.816Z,10.60
2019-01-10T17:35:22.705Z,10.60
2019-01-10T17:37:54.071Z,10.50
2019-01-10T17:40:25.920Z,10.50
2019-01-10T17:43:06.858Z,10.50
2019-01-10T17:45:38.796Z,10.50
2019-01-10T17:48:17.419Z,10.50
2019-01-10T17:50:49.159Z,10.50
2019-01-10T17:53:21.598Z,10.50
2019-01-10T17:55:54.440Z,10.50
2019-01-10T17:58:27.300Z,10.50
2019-01-10T18:00:58.719Z,10.50
2019-01-10T18:03:40.360Z,10.50
2019-01-10T18:06:10.983Z,10.50
2019-01-10T18:08:42.424Z,10.40
2019-01-10T18:11:13.760Z,10.40
2019-01-10T18:13:45.028Z,10.50
2019-01-10T18:16:16.876Z,10.60
2019-01-10T18:18:48.354Z,10.50
2019-01-10T18:21:21.404Z,10.50
2019-01-10T18:23:52.665Z,10.50
2019-01-10T18:26:23.731Z,10.40
2019-01-10T18:28:55.149Z,10.30
2019-01-10T18:31:25.864Z,10.30
2019-01-10T18:34:07.287Z,10.30
2019-01-10T18:36:38.557Z,10.20
2019-01-10T18:39:11.015Z,10.20
2019-01-10T18:41:42.488Z,10.20
2019-01-10T18:44:26.871Z,10.20
2019-01-10T18:46:58.289Z,9.30
2019-01-10T18:49:37.674Z,10.20
2019-01-10T18:52:09.039Z,10.30
2019-01-10T18:54:40.247Z,10.20
2019-01-10T18:57:11.455Z,10.20
2019-01-10T18:59:42.674Z,10.20
2019-01-10T19:02:14.120Z,10.20
2019-01-10T19:04:45.552Z,10.20
2019-01-10T19:07:16.883Z,10.10
2019-01-10T19:09:48.500Z,10.10
2019-01-10T19:12:19.595Z,10.20
2019-01-10T19:14:56.022Z,10.20
2019-01-10T19:17:27.235Z,10.20
2019-01-10T19:19:58.764Z,10.20
2019-01-10T19:22:30.217Z,10.10
2019-01-10T19:25:01.576Z,10.10
2019-01-10T19:27:34.816Z,10.10
2019-01-10T19:30:16.167Z,10.20
2019-01-10T19:32:47.381Z,10.10
2019-01-10T19:35:18.838Z,10.10
2019-01-10T19:37:51.765Z,10.10
2019-01-10T19:40:27.550Z,10.10
2019-01-10T19:43:01.103Z,10.10
2019-01-10T19:45:40.427Z,10.00
2019-01-10T19:48:19.140Z,9.90
2019-01-10T19:50:51.885Z,9.90
2019-01-10T19:53:23.821Z,10.00
2019-01-10T19:55:54.954Z,9.90
2019-01-10T19:58:26.418Z,9.90
2019-01-10T20:01:13.219Z,9.80
2019-01-10T20:03:45.222Z,9.90
2019-01-10T20:06:22.387Z,9.90
2019-01-10T20:08:53.669Z,9.90
2019-01-10T20:11:24.569Z,9.90
2019-01-10T20:13:56.242Z,9.80
2019-01-10T20:16:27.289Z,9.80
2019-01-10T20:19:00.884Z,9.80
2019-01-10T20:21:32.346Z,9.80
2019-01-10T20:24:03.832Z,9.90
2019-01-10T20:26:35.179Z,9.90
2019-01-10T20:29:06.797Z,9.80
2019-01-10T20:31:38.648Z,9.90
2019-01-10T20:34:11.593Z,9.80
2019-01-10T20:36:42.901Z,9.80
2019-01-10T20:39:14.328Z,9.80
2019-01-10T20:41:45.861Z,9.70
2019-01-10T20:44:16.954Z,9.60
2019-01-10T20:46:55.357Z,9.60
2019-01-10T20:49:27.365Z,9.50
2019-01-10T20:51:59.246Z,9.50
2019-01-10T20:54:30.828Z,9.50
2019-01-10T20:57:01.962Z,9.50
2019-01-10T20:59:33.840Z,9.50
2019-01-10T21:02:06.303Z,9.50
2019-01-10T21:04:39.179Z,9.50
2019-01-10T21:07:10.361Z,9.40
2019-01-10T21:09:41.433Z,9.30
2019-01-10T21:12:13.652Z,9.40
2019-01-10T21:14:44.817Z,9.30
2019-01-10T21:17:16.251Z,9.30
2019-01-10T21:19:47.643Z,9.30
2019-01-10T21:22:20.222Z,9.40
2019-01-10T21:24:51.733Z,9.40
2019-01-10T21:27:23.981Z,9.50
2019-01-10T21:29:55.173Z,9.60
2019-01-10T21:32:26.215Z,9.60
2019-01-10T21:34:57.432Z,9.70
2019-01-10T21:37:28.316Z,9.60
2019-01-10T21:39:59.566Z,9.70
2019-01-10T21:42:30.407Z,9.70
2019-01-10T21:45:02.302Z,9.70
2019-01-10T21:47:39.366Z,9.80
2019-01-10T21:50:13.704Z,9.70
2019-01-10T21:52:45.383Z,9.70
2019-01-10T21:55:18.034Z,9.70
2019-01-10T21:57:49.459Z,9.70
2019-01-10T22:00:26.481Z,9.70
2019-01-10T22:02:58.044Z,9.70
2019-01-10T22:05:36.308Z,9.70
2019-01-10T22:08:09.476Z,9.70
2019-01-10T22:10:40.844Z,9.50
2019-01-10T22:13:16.392Z,9.40
2019-01-10T22:15:47.833Z,9.50
2019-01-10T22:18:19.262Z,9.40
2019-01-10T22:20:50.374Z,9.40
2019-01-10T22:23:22.120Z,9.30
2019-01-10T22:25:54.978Z,9.30
2019-01-10T22:28:26.056Z,9.30
2019-01-10T22:31:07.416Z,9.40
2019-01-10T22:33:38.914Z,9.50
2019-01-10T22:36:11.470Z,9.40
2019-01-10T22:38:42.673Z,9.40
2019-01-10T22:41:14.025Z,9.30
2019-01-10T22:43:45.215Z,9.20
2019-01-10T22:46:16.382Z,9.10
2019-01-10T22:48:47.952Z,9.00
2019-01-10T22:51:19.146Z,9.00
2019-01-10T22:53:50.484Z,9.10
2019-01-10T22:56:22.007Z,9.10
2019-01-10T22:58:56.229Z,9.10
2019-01-10T23:01:55.640Z,9.20
2019-01-10T23:04:33.483Z,9.20
2019-01-10T23:07:06.174Z,9.20
2019-01-10T23:09:37.418Z,9.20
2019-01-10T23:12:08.738Z,9.20
2019-01-10T23:14:40.141Z,9.10
2019-01-10T23:17:11.293Z,9.00
2019-01-10T23:19:51.521Z,8.90
2019-01-10T23:22:22.495Z,8.80
2019-01-10T23:24:58.388Z,8.80
2019-01-10T23:27:29.306Z,8.80
2019-01-10T23:30:00.873Z,8.80
2019-01-10T23:32:44.859Z,8.80
2019-01-10T23:35:16.071Z,8.90
2019-01-10T23:37:49.987Z,8.80
2019-01-10T23:40:22.183Z,8.90
2019-01-10T23:42:53.161Z,8.80
2019-01-10T23:45:24.031Z,8.70
2019-01-10T23:47:55.201Z,8.70
2019-01-10T23:50:26.627Z,8.80
2019-01-10T23:53:03.948Z,8.80
2019-01-10T23:55:39.388Z,8.70
2019-01-10T23:58:10.912Z,8.60
